Latest Weather Observations for Perth

IDW60901

Issued at 4:11 pm WST Sunday 26 June 2016 (issued every 10 minutes, with the page automatically refreshed every 10 minutes)

About weather observations | Map of Perth area stations | Latest observations for Perth area | Other Formats
Station Details ID: 009225 Name: PERTH METRO Lat: -31.92 Lon: 115.87 Height: 24.9 m
Data from the previous 72 hours. | See also: Recent months at Perth
Date/Time
WST
Temp
°C
App
Temp
°C
Dew
Point
°C
Rel
Hum
%
Delta-T
°C
Wind Press
QNH
hPa
Press
MSL
hPa
Rain since
9am
mm
Dir  Spd
km/h
Gust
km/h
Spd
kts
Gust
kts
26/04:00pm 17.1 14.7 6.9 51 5.0 NW 9 13 5 7 1022.8 1022.8 0.0
26/03:30pm 16.8 15.0 7.2 53 4.8 NW 6 9 3 5 1022.8 1022.8 0.0
26/03:00pm 17.9 15.7 7.9 52 5.1 NW 9 15 5 8 1022.8 1022.8 0.0
26/02:30pm 18.2 16.2 7.0 48 5.6 NW 7 17 4 9 1022.9 1022.9 0.0
26/02:00pm 17.6 15.5 5.9 46 5.7 NW 6 13 3 7 1023.1 1023.1 0.0
26/01:30pm 17.6 15.7 6.5 48 5.5 NW 6 15 3 8 1023.6 1023.6 0.0
26/01:00pm 17.7 15.4 5.9 46 5.7 WNW 7 17 4 9 1023.9 1023.9 0.0
26/12:30pm 17.4 15.2 6.3 48 5.5 N 7 13 4 7 1024.2 1024.2 0.0
26/12:00pm 16.4 13.3 5.7 49 5.1 N 11 17 6 9 1024.7 1024.7 0.0
26/11:30am 15.9 13.3 6.1 52 4.7 N 9 17 5 9 1025.2 1025.2 0.0
26/11:00am 15.3 13.1 6.1 54 4.4 NNE 7 11 4 6 1025.6 1025.6 0.0
26/10:30am 13.6 10.8 5.0 56 4.0 NNE 9 15 5 8 1026.0 1026.0 0.0
26/10:00am 12.2 9.9 5.6 64 3.1 NNE 7 11 4 6 1026.2 1026.2 0.0
26/09:30am 10.4 7.6 5.2 70 2.4 NE 9 13 5 7 1026.1 1026.1 0.0
26/09:00am 8.8 6.6 5.4 79 1.5 ENE 6 9 3 5 1026.0 1026.0 4.4
26/08:30am 6.6 5.7 6.0 96 0.3 CALM 0 6 0 3 1025.7 1025.7 4.4
26/08:00am 5.2 3.3 4.8 97 0.2 ENE 4 7 2 4 1025.6 1025.6 4.4
26/07:30am 4.2 1.7 3.8 97 0.2 ENE 6 9 3 5 1025.4 1025.4 4.4
26/07:00am 4.3 1.7 4.0 98 0.1 ENE 7 9 4 5 1025.0 1025.0 4.4
26/06:30am 4.1 1.6 4.0 99 0.0 S 6 9 3 5 1024.7 1024.7 4.4
26/06:00am 3.7 2.3 3.4 98 0.1 CALM 0 0 0 0 1024.6 1024.6 4.4
26/05:30am 4.0 2.2 3.7 98 0.1 S 2 7 1 4 1024.5 1024.5 4.4
26/05:00am 3.7 1.5 3.4 98 0.1 S 4 7 2 4 1024.4 1024.4 4.4
26/04:30am 3.5 2.0 3.1 97 0.2 CALM 0 0 0 0 1024.5 1024.5 4.4
26/04:00am 3.9 2.5 3.6 98 0.1 CALM 0 0 0 0 1024.2 1024.2 4.4
26/03:30am 4.3 3.0 4.0 98 0.1 CALM 0 0 0 0 1024.4 1024.4 4.4
26/03:00am 4.5 3.2 4.1 97 0.2 CALM 0 0 0 0 1024.5 1024.5 4.4
26/02:30am 4.6 3.3 4.2 97 0.2 CALM 0 0 0 0 1024.5 1024.5 4.4
26/02:00am 4.9 3.7 4.5 97 0.2 CALM 0 0 0 0 1024.4 1024.4 4.4
26/01:30am 5.2 3.6 4.6 96 0.3 S 2 6 1 3 1024.2 1024.2 4.4
26/01:00am 5.6 4.1 5.0 96 0.3 S 2 7 1 4 1024.1 1024.1 4.4
26/12:30am 5.7 4.6 5.1 96 0.3 CALM 0 0 0 0 1024.1 1024.1 4.4
26/12:00am 5.9 4.8 5.2 95 0.3 CALM 0 4 0 2 1024.2 1024.2 4.4
 
Date/Time
WST
Temp
°C
App
Temp
°C
Dew
Point
°C
Rel
Hum
%
Delta-T
°C
Wind Press
QNH
hPa
Press
MSL
hPa
Rain since
9am
mm
Dir  Spd
km/h
Gust
km/h
Spd
kts
Gust
kts
25/11:30pm 5.8 4.3 4.9 94 0.4 S 2 7 1 4 1024.2 1024.2 4.4
25/11:00pm 6.1 5.0 5.1 93 0.4 CALM 0 0 0 0 1024.3 1024.3 4.4
25/10:30pm 6.6 5.6 5.4 92 0.5 CALM 0 0 0 0 1024.2 1024.2 4.4
25/10:00pm 7.3 6.3 5.8 90 0.7 CALM 0 0 0 0 1024.3 1024.3 4.4
25/09:30pm 8.1 7.2 6.1 87 0.9 CALM 0 0 0 0 1024.3 1024.3 4.4
25/09:00pm 9.2 7.2 6.1 81 1.4 S 6 9 3 5 1024.3 1024.3 4.4
25/08:30pm 10.5 8.5 6.1 74 2.0 S 6 7 3 4 1024.2 1024.2 4.4
25/08:00pm 10.8 8.6 6.0 72 2.2 S 7 9 4 5 1024.2 1024.2 4.4
25/07:30pm 9.9 8.0 6.6 80 1.5 S 6 9 3 5 1023.8 1023.8 4.4
25/07:00pm 9.7 8.6 6.8 82 1.4 S 2 7 1 4 1023.4 1023.4 4.4
25/06:30pm 10.9 10.1 6.3 73 2.2 CALM 0 0 0 0 1022.9 1022.9 4.4
25/06:00pm 12.9 10.8 5.6 61 3.4 S 6 11 3 6 1022.3 1022.3 4.4
25/05:30pm 13.6 11.4 6.2 61 3.5 SSW 7 13 4 7 1022.1 1022.1 4.4
25/05:00pm 14.4 12.3 6.5 59 3.8 S 7 11 4 6 1021.5 1021.5 4.4
25/04:30pm 15.2 12.7 6.7 57 4.1 S 9 19 5 10 1021.3 1021.3 4.4
25/04:00pm 15.7 12.5 7.0 56 4.3 S 13 24 7 13 1021.2 1021.2 4.4
25/03:30pm 16.4 13.3 7.1 54 4.6 S 13 22 7 12 1020.7 1020.7 4.4
25/03:00pm 16.7 13.7 7.9 56 4.4 SSW 13 24 7 13 1020.4 1020.4 4.4
25/02:30pm 16.5 13.2 8.0 57 4.3 SSW 15 26 8 14 1020.2 1020.2 4.4
25/02:00pm 16.4 12.7 7.9 57 4.3 SSW 17 28 9 15 1020.1 1020.1 4.4
25/01:30pm 16.3 13.7 9.5 64 3.5 S 13 20 7 11 1020.0 1020.0 4.4
25/01:00pm 15.9 14.0 10.4 70 2.9 SSW 11 17 6 9 1020.1 1020.1 4.4
25/12:30pm 14.8 12.5 10.4 75 2.3 SSE 13 19 7 10 1020.2 1020.2 4.4
25/12:00pm 13.9 12.6 11.2 84 1.4 SSE 9 17 5 9 1020.5 1020.5 4.4
25/11:30am 12.8 12.1 11.9 94 0.5 SSE 7 11 4 6 1020.5 1020.5 4.4
25/11:00am 12.9 12.5 12.4 97 0.3 SSE 6 9 3 5 1020.9 1020.9 4.4
25/10:30am 12.8 12.8 12.3 97 0.3 ENE 4 7 2 4 1021.1 1021.1 2.6
25/10:00am 12.1 12.2 11.6 97 0.3 NW 2 6 1 3 1020.4 1020.4 2.6
25/09:30am 12.2 11.0 11.7 97 0.3 N 9 13 5 7 1019.6 1019.6 0.0
25/09:00am 11.0 10.1 10.7 98 0.2 NE 6 9 3 5 1019.5 1019.5 9.6
25/08:30am 10.6 8.9 10.0 96 0.3 SSE 9 19 5 10 1019.5 1019.5 8.2
25/08:00am 10.0 8.2 9.5 97 0.2 N 9 17 5 9 1018.6 1018.6 3.4
25/07:30am 9.8 7.9 9.2 96 0.3 N 9 17 5 9 1018.5 1018.5 3.4
25/07:00am 9.7 8.2 9.1 96 0.3 NNE 7 11 4 6 1018.1 1018.1 2.6
25/06:30am 10.0 8.5 9.2 95 0.4 NNE 7 13 4 7 1018.1 1018.1 2.4
25/06:00am 10.1 8.2 9.2 94 0.4 NNE 9 13 5 7 1017.8 1017.8 1.6
25/05:30am 10.0 8.4 8.9 93 0.5 NNE 7 11 4 6 1017.7 1017.7 1.2
25/05:00am 10.3 8.7 8.6 89 0.8 NNE 7 11 4 6 1017.5 1017.5 0.6
25/04:30am 10.8 9.2 8.2 84 1.3 NNE 6 9 3 5 1017.0 1017.0 0.2
25/04:00am 10.4 9.9 8.0 85 1.2 CALM 0 6 0 3 1017.1 1017.1 0.2
25/03:30am 11.6 9.7 7.5 76 2.0 NNE 7 13 4 7 1017.3 1017.3 0.0
25/03:00am 11.7 9.7 7.0 73 2.2 NNE 7 13 4 7 1017.3 1017.3 0.0
25/02:30am 10.6 8.6 6.4 75 2.0 NNE 6 9 3 5 1017.5 1017.5 0.0
25/02:00am 10.4 8.2 6.2 75 2.0 NNE 7 13 4 7 1017.4 1017.4 0.0
25/01:30am 10.3 8.1 6.3 76 1.9 N 7 11 4 6 1017.5 1017.5 0.0
25/01:00am 10.0 7.4 6.2 77 1.8 N 9 13 5 7 1017.7 1017.7 0.0
25/12:30am 10.3 7.7 6.3 76 1.9 NE 9 15 5 8 1017.7 1017.7 0.0
25/12:00am 10.4 8.2 6.2 75 1.9 NE 7 13 4 7 1017.8 1017.8 0.0
 
Date/Time
WST
Temp
°C
App
Temp
°C
Dew
Point
°C
Rel
Hum
%
Delta-T
°C
Wind Press
QNH
hPa
Press
MSL
hPa
Rain since
9am
mm
Dir  Spd
km/h
Gust
km/h
Spd
kts
Gust
kts
24/11:30pm 10.3 8.4 6.6 78 1.7 NE 6 9 3 5 1018.3 1018.3 0.0
24/11:00pm 10.3 8.2 6.5 77 1.8 NE 7 11 4 6 1018.2 1018.2 0.0
24/10:30pm 10.8 8.7 6.7 76 1.9 NE 7 13 4 7 1018.1 1018.1 0.0
24/10:00pm 11.1 8.7 6.8 75 2.0 NNE 9 13 5 7 1017.9 1017.9 0.0
24/09:30pm 11.0 9.0 7.3 78 1.8 NNW 7 11 4 6 1018.3 1018.3 0.0
24/09:00pm 11.4 9.6 7.1 75 2.1 NNW 6 7 3 4 1018.1 1018.1 0.0
24/08:30pm 11.9 10.0 7.6 75 2.1 NNW 7 9 4 5 1018.0 1018.0 0.0
24/08:00pm 12.4 10.6 7.9 74 2.2 NNW 7 9 4 5 1018.0 1018.0 0.0
24/07:30pm 12.0 10.8 7.9 76 2.0 NNW 4 7 2 4 1018.0 1018.0 0.0
24/07:00pm 13.1 12.8 8.6 74 2.2 CALM 0 7 0 4 1018.0 1018.0 0.0
24/06:30pm 13.7 13.0 8.7 72 2.5 NNW 2 7 1 4 1017.8 1017.8 0.0
24/06:00pm 14.2 13.9 8.6 69 2.8 CALM 0 0 0 0 1017.7 1017.7 0.0
24/05:30pm 14.9 14.0 7.9 63 3.5 NNW 2 6 1 3 1017.5 1017.5 0.0
24/05:00pm 15.8 14.1 7.6 58 4.1 NNW 6 9 3 5 1017.4 1017.4 0.0
24/04:30pm 16.3 15.3 7.3 55 4.5 NNW 2 7 1 4 1017.3 1017.3 0.0
24/04:00pm 17.0 15.5 6.8 51 5.0 NNW 4 9 2 5 1017.2 1017.2 0.0
24/03:30pm 16.2 14.0 6.3 52 4.8 NNE 7 11 4 6 1017.2 1017.2 0.0
24/03:00pm 16.6 14.4 6.4 51 5.0 NNE 7 15 4 8 1017.4 1017.4 0.0
24/02:30pm 16.9 14.9 7.0 52 4.9 NNE 7 15 4 8 1017.5 1017.5 0.0
24/02:00pm 16.9 13.9 6.1 49 5.3 NNE 11 19 6 10 1017.7 1017.7 0.0
24/01:30pm 16.7 14.3 7.1 53 4.8 NNE 9 17 5 9 1018.1 1018.1 0.0
24/01:00pm 15.6 12.7 6.3 54 4.5 NNE 11 17 6 9 1018.6 1018.6 0.0
24/12:30pm 15.4 12.2 6.9 57 4.2 NE 13 19 7 10 1019.1 1019.1 0.0
24/12:00pm 15.1 12.1 6.1 55 4.3 NNE 11 19 6 10 1019.6 1019.6 0.0
24/11:30am 14.4 10.9 5.5 55 4.2 NNE 13 20 7 11 1020.0 1020.0 0.0
24/11:00am 14.0 11.0 5.9 58 3.8 NNE 11 20 6 11 1020.5 1020.5 0.0
24/10:30am 14.0 10.5 5.4 56 4.0 NE 13 20 7 11 1020.8 1020.8 0.0
24/10:00am 12.8 9.3 5.5 61 3.4 NE 13 17 7 9 1020.8 1020.8 0.0
24/09:30am 12.9 9.5 5.8 62 3.3 NE 13 20 7 11 1020.8 1020.8 0.0
24/09:00am 12.0 9.4 5.9 66 2.8 NE 9 13 5 7 1020.8 1020.8 0.0
24/08:30am 11.8 9.5 5.9 67 2.8 NNE 7 13 4 7 1020.8 1020.8 0.0
24/08:00am 10.8 8.5 5.8 71 2.3 NNE 7 11 4 6 1020.5 1020.5 0.0
24/07:30am 11.1 8.4 5.6 69 2.5 NNE 9 15 5 8 1020.2 1020.2 0.0
24/07:00am 11.3 8.6 5.6 68 2.6 NNE 9 15 5 8 1020.3 1020.3 0.0
24/06:30am 11.2 8.6 6.1 71 2.4 NE 9 13 5 7 1020.2 1020.2 0.0
24/06:00am 11.1 8.6 6.5 73 2.2 NNE 9 11 5 6 1020.0 1020.0 0.0
24/05:30am 11.0 8.5 6.4 73 2.2 NNE 9 13 5 7 1020.2 1020.2 0.0
24/05:00am 11.1 9.0 6.6 74 2.1 NE 7 11 4 6 1020.1 1020.1 0.0
24/04:30am 11.1 9.0 6.6 74 2.1 ENE 7 11 4 6 1020.2 1020.2 0.0
24/04:00am 11.0 8.5 6.6 74 2.1 ENE 9 11 5 6 1020.1 1020.1 0.0
24/03:30am 11.0 8.9 6.7 75 2.0 ENE 7 11 4 6 1020.2 1020.2 0.0
24/03:00am 11.0 9.0 6.9 76 1.9 ENE 7 9 4 5 1020.4 1020.4 0.0
24/02:30am 10.6 9.2 7.3 80 1.6 SE 4 7 2 4 1020.5 1020.5 0.0
24/02:00am 9.9 9.0 7.7 86 1.1 SE 2 6 1 3 1020.6 1020.6 0.0
24/01:30am 9.6 8.7 7.7 88 0.9 SE 2 7 1 4 1020.8 1020.8 0.0
24/01:00am 9.7 9.1 7.5 86 1.0 CALM 0 0 0 0 1021.0 1021.0 0.0
24/12:30am 10.5 9.9 7.6 82 1.4 CALM 0 0 0 0 1021.4 1021.4 0.0
24/12:00am 11.2 10.6 7.5 78 1.8 CALM 0 6 0 3 1021.4 1021.4 0.0
 
Date/Time
WST
Temp
°C
App
Temp
°C
Dew
Point
°C
Rel
Hum
%
Delta-T
°C
Wind Press
QNH
hPa
Press
MSL
hPa
Rain since
9am
mm
Dir  Spd
km/h
Gust
km/h
Spd
kts
Gust
kts
23/11:30pm 11.4 10.2 8.1 80 1.6 SE 4 7 2 4 1021.7 1021.7 0.0
23/11:00pm 11.6 10.8 8.1 79 1.7 SE 2 7 1 4 1021.7 1021.7 0.0
23/10:30pm 11.7 10.9 8.0 78 1.8 SE 2 7 1 4 1021.8 1021.8 0.0
23/10:00pm 12.0 11.5 7.9 76 2.0 CALM 0 2 0 1 1021.8 1021.8 0.0
23/09:30pm 12.6 11.7 7.9 73 2.3 SE 2 7 1 4 1021.9 1021.9 0.0
23/09:00pm 12.6 12.3 8.7 77 1.9 CALM 0 0 0 0 1021.9 1021.9 0.0
23/08:30pm 13.0 12.6 8.1 72 2.4 CALM 0 0 0 0 1021.8 1021.8 0.0
23/08:00pm 13.3 13.0 8.8 74 2.3 CALM 0 0 0 0 1021.6 1021.6 0.0
23/07:30pm 13.8 13.0 8.2 69 2.8 SE 2 6 1 3 1021.6 1021.6 0.0
23/07:00pm 13.8 13.3 8.0 68 2.9 CALM 0 6 0 3 1021.4 1021.4 0.0
23/06:30pm 14.1 13.7 8.3 68 2.9 CALM 0 0 0 0 1021.2 1021.2 0.0
23/06:00pm 14.2 13.3 7.7 65 3.2 SE 2 6 1 3 1021.0 1021.0 0.0
23/05:30pm 14.7 14.2 7.7 63 3.5 CALM 0 0 0 0 1020.9 1020.9 0.0
23/05:00pm 14.9 13.5 7.2 60 3.8 SE 4 6 2 3 1020.7 1020.7 0.0
23/04:30pm 15.3 13.9 7.1 58 4.0 SE 4 7 2 4 1020.5 1020.5 0.0

Latest Capital City Observations: Canberra | Sydney | Melbourne | Brisbane | Adelaide | Perth | Hobart | Darwin

Other Formats:

Comma delimited format used in spreadsheet applications
http://www.bom.gov.au/fwo/IDW60901/IDW60901.94608.axf

JavaScript Object Notation format (JSON) in row-major order
http://www.bom.gov.au/fwo/IDW60901/IDW60901.94608.json